createdAt,value
2019-03-21T00:00:49.297Z,10.81
2019-03-21T00:02:06.558Z,11.46
2019-03-21T00:03:12.460Z,12.12
2019-03-21T00:04:18.333Z,12.60
2019-03-21T00:05:26.006Z,12.96
2019-03-21T00:06:32.026Z,13.22
2019-03-21T00:07:38.567Z,13.13
2019-03-21T00:08:46.718Z,12.87
2019-03-21T00:10:23.401Z,12.46
2019-03-21T00:11:59.348Z,11.97
2019-03-21T00:13:05.802Z,11.53
2019-03-21T00:14:26.577Z,11.25
2019-03-21T00:15:49.213Z,10.97
2019-03-21T00:16:57.258Z,10.88
2019-03-21T00:18:12.839Z,11.22
2019-03-21T00:19:19.923Z,11.73
2019-03-21T00:20:26.383Z,12.23
2019-03-21T00:21:33.420Z,12.70
2019-03-21T00:22:40.303Z,13.11
2019-03-21T00:23:48.023Z,13.41
2019-03-21T00:24:55.095Z,13.60
2019-03-21T00:26:01.135Z,13.39
2019-03-21T00:27:07.286Z,13.09
2019-03-21T00:28:13.421Z,12.71
2019-03-21T00:29:20.384Z,12.39
2019-03-21T00:30:28.801Z,12.04
2019-03-21T00:31:35.616Z,11.76
2019-03-21T00:32:42.705Z,11.46
2019-03-21T00:33:48.688Z,11.22
2019-03-21T00:34:57.155Z,11.05
2019-03-21T00:36:03.490Z,11.32
2019-03-21T00:37:10.217Z,11.81
2019-03-21T00:38:16.946Z,12.31
2019-03-21T00:39:32.589Z,12.68
2019-03-21T00:40:49.303Z,13.05
2019-03-21T00:41:55.913Z,13.44
2019-03-21T00:43:06.936Z,13.58
2019-03-21T00:44:18.366Z,13.39
2019-03-21T00:45:24.693Z,13.05
2019-03-21T00:46:31.605Z,12.64
2019-03-21T00:47:39.768Z,12.33
2019-03-21T00:48:47.058Z,11.98
2019-03-21T00:49:54.347Z,11.64
2019-03-21T00:51:00.864Z,11.38
2019-03-21T00:52:07.777Z,11.23
2019-03-21T00:53:14.416Z,11.43
2019-03-21T00:54:21.426Z,11.85
2019-03-21T00:55:36.037Z,12.26
2019-03-21T00:56:42.220Z,12.68
2019-03-21T00:57:48.117Z,12.96
2019-03-21T00:58:56.517Z,13.21
2019-03-21T01:00:02.828Z,13.43
2019-03-21T01:01:12.068Z,13.64
2019-03-21T01:02:18.413Z,13.84
2019-03-21T01:03:25.240Z,13.91
2019-03-21T01:04:31.385Z,13.77
2019-03-21T01:05:38.377Z,13.39
2019-03-21T01:06:45.991Z,12.95
2019-03-21T01:07:52.707Z,12.51
2019-03-21T01:08:58.847Z,12.05
2019-03-21T01:10:11.685Z,11.71
2019-03-21T01:11:19.587Z,11.53
2019-03-21T01:12:28.019Z,11.76
2019-03-21T01:13:39.217Z,12.12
2019-03-21T01:14:47.827Z,12.47
2019-03-21T01:15:56.657Z,12.84
2019-03-21T01:17:03.926Z,13.16
2019-03-21T01:18:10.488Z,13.43
2019-03-21T01:19:16.998Z,13.65
2019-03-21T01:20:23.700Z,13.88
2019-03-21T01:21:31.848Z,14.01
2019-03-21T01:22:40.448Z,14.13
2019-03-21T01:23:47.047Z,14.24
2019-03-21T01:24:53.728Z,14.26
2019-03-21T01:26:09.155Z,14.01
2019-03-21T01:27:15.499Z,13.53
2019-03-21T01:28:21.438Z,13.11
2019-03-21T01:29:28.938Z,12.64
2019-03-21T01:30:35.078Z,12.25
2019-03-21T01:31:44.418Z,12.01
2019-03-21T01:32:50.507Z,12.15
2019-03-21T01:33:58.327Z,12.42
2019-03-21T01:35:05.228Z,12.72
2019-03-21T01:36:11.728Z,13.06
2019-03-21T01:37:17.675Z,13.34
2019-03-21T01:38:24.544Z,13.58
2019-03-21T01:39:30.721Z,13.77
2019-03-21T01:40:44.875Z,13.95
2019-03-21T01:42:12.056Z,14.03
2019-03-21T01:43:19.354Z,14.09
2019-03-21T01:44:28.056Z,14.26
2019-03-21T01:45:35.066Z,14.30
2019-03-21T01:46:42.694Z,14.40
2019-03-21T01:47:51.373Z,14.48
2019-03-21T01:48:57.808Z,14.57
2019-03-21T01:50:07.769Z,14.60
2019-03-21T01:51:14.489Z,14.47
2019-03-21T01:52:21.396Z,14.11
2019-03-21T01:53:30.634Z,13.65
2019-03-21T01:54:37.649Z,13.11
2019-03-21T01:55:45.328Z,12.66
2019-03-21T01:56:51.256Z,12.36
2019-03-21T01:57:57.322Z,12.40
2019-03-21T01:59:03.768Z,12.60
2019-03-21T02:00:31.419Z,12.87
2019-03-21T02:01:37.676Z,13.22
2019-03-21T02:02:43.966Z,13.51
2019-03-21T02:03:50.239Z,13.78
2019-03-21T02:04:56.770Z,13.88
2019-03-21T02:06:03.617Z,14.03
2019-03-21T02:07:10.120Z,14.15
2019-03-21T02:08:16.739Z,14.30
2019-03-21T02:09:23.159Z,14.41
2019-03-21T02:10:30.841Z,14.48
2019-03-21T02:11:38.803Z,14.54
2019-03-21T02:12:45.809Z,14.54
2019-03-21T02:13:54.129Z,14.58
2019-03-21T02:15:01.515Z,14.61
2019-03-21T02:16:07.801Z,14.58
2019-03-21T02:17:14.860Z,14.29
2019-03-21T02:18:21.264Z,13.84
2019-03-21T02:19:30.623Z,13.36
2019-03-21T02:20:39.598Z,12.85
2019-03-21T02:21:46.519Z,12.46
2019-03-21T02:22:53.590Z,12.43
2019-03-21T02:24:00.093Z,12.66
2019-03-21T02:25:12.080Z,12.92
2019-03-21T02:26:18.569Z,13.22
2019-03-21T02:27:25.030Z,13.40
2019-03-21T02:28:31.320Z,13.60
2019-03-21T02:29:37.781Z,13.78
2019-03-21T02:30:50.093Z,13.91
2019-03-21T02:31:57.691Z,14.06
2019-03-21T02:33:34.265Z,14.17
2019-03-21T02:34:40.332Z,14.27
2019-03-21T02:35:46.392Z,14.37
2019-03-21T02:36:52.312Z,14.47
2019-03-21T02:37:58.410Z,14.53
2019-03-21T02:39:06.131Z,14.56
2019-03-21T02:40:17.096Z,14.63
2019-03-21T02:41:25.705Z,14.63
2019-03-21T02:42:31.533Z,14.70
2019-03-21T02:43:39.080Z,14.75
2019-03-21T02:44:45.505Z,14.76
2019-03-21T02:45:53.261Z,14.76
2019-03-21T02:47:00.899Z,14.45
2019-03-21T02:48:07.134Z,13.96
2019-03-21T02:49:13.441Z,13.47
2019-03-21T02:50:25.190Z,12.94
2019-03-21T02:51:33.132Z,12.56
2019-03-21T02:52:39.979Z,12.54
2019-03-21T02:53:47.186Z,12.70
2019-03-21T02:54:53.901Z,12.94
2019-03-21T02:56:00.692Z,13.19
2019-03-21T02:57:06.852Z,13.36
2019-03-21T02:58:14.861Z,13.51
2019-03-21T02:59:21.942Z,13.65
2019-03-21T03:00:44.021Z,13.77
2019-03-21T03:01:49.944Z,13.89
2019-03-21T03:02:58.424Z,14.02
2019-03-21T03:04:05.153Z,14.15
2019-03-21T03:05:23.992Z,14.22
2019-03-21T03:06:32.291Z,14.23
2019-03-21T03:07:39.291Z,14.33
2019-03-21T03:08:45.691Z,14.37
2019-03-21T03:09:53.343Z,14.41
2019-03-21T03:11:19.253Z,14.37
2019-03-21T03:12:26.693Z,14.34
2019-03-21T03:13:33.654Z,14.36
2019-03-21T03:14:40.173Z,14.40
2019-03-21T03:15:46.663Z,14.44
2019-03-21T03:16:53.452Z,14.45
2019-03-21T03:18:01.859Z,14.45
2019-03-21T03:19:07.984Z,14.51
2019-03-21T03:20:18.133Z,14.53
2019-03-21T03:21:25.195Z,14.57
2019-03-21T03:22:33.198Z,14.63
2019-03-21T03:23:39.591Z,14.65
2019-03-21T03:24:46.838Z,14.64
2019-03-21T03:25:53.511Z,14.63
2019-03-21T03:26:59.826Z,14.63
2019-03-21T03:28:27.815Z,14.58
2019-03-21T03:29:34.193Z,14.51
2019-03-21T03:30:40.577Z,14.48
2019-03-21T03:31:48.254Z,14.48
2019-03-21T03:32:54.706Z,14.50
2019-03-21T03:34:02.827Z,14.47
2019-03-21T03:35:13.046Z,14.48
2019-03-21T03:36:20.933Z,14.50
2019-03-21T03:37:26.903Z,14.50
2019-03-21T03:38:33.303Z,14.51
2019-03-21T03:39:39.842Z,14.48
2019-03-21T03:41:01.782Z,14.50
2019-03-21T03:42:07.782Z,14.48
2019-03-21T03:43:16.123Z,14.48
2019-03-21T03:44:23.074Z,14.48
2019-03-21T03:45:38.576Z,14.50
2019-03-21T03:46:45.042Z,14.47
2019-03-21T03:47:51.225Z,14.43
2019-03-21T03:48:58.903Z,14.43
2019-03-21T03:50:08.967Z,14.43
2019-03-21T03:51:16.906Z,14.47
2019-03-21T03:52:25.814Z,14.51
2019-03-21T03:53:32.452Z,14.57
2019-03-21T03:54:38.960Z,14.57
2019-03-21T03:55:45.594Z,14.58
2019-03-21T03:56:52.383Z,14.58
2019-03-21T03:58:08.834Z,14.58
2019-03-21T03:59:16.794Z,14.57
2019-03-21T04:00:23.754Z,14.60
2019-03-21T04:01:29.889Z,14.64
2019-03-21T04:02:37.695Z,14.61
2019-03-21T04:03:46.414Z,14.26
2019-03-21T04:04:52.991Z,13.77
2019-03-21T04:05:59.504Z,13.27
2019-03-21T04:07:06.044Z,12.79
2019-03-21T04:08:13.157Z,12.47
2019-03-21T04:09:20.275Z,12.53
2019-03-21T04:10:33.177Z,12.77
2019-03-21T04:11:41.183Z,13.01
2019-03-21T04:12:49.094Z,13.21
2019-03-21T04:13:55.669Z,13.43
2019-03-21T04:15:02.764Z,13.58
2019-03-21T04:16:09.944Z,13.65
2019-03-21T04:17:16.559Z,13.75
2019-03-21T04:18:27.183Z,13.85
2019-03-21T04:19:36.034Z,13.94
2019-03-21T04:21:02.029Z,14.05
2019-03-21T04:22:08.324Z,14.15
2019-03-21T04:23:17.388Z,14.26
2019-03-21T04:24:24.339Z,14.36
2019-03-21T04:25:54.255Z,14.39
2019-03-21T04:27:11.279Z,14.44
2019-03-21T04:28:17.634Z,14.47
2019-03-21T04:29:24.326Z,14.47
2019-03-21T04:30:30.884Z,14.45
2019-03-21T04:31:37.953Z,14.50
2019-03-21T04:32:44.538Z,14.53
2019-03-21T04:33:54.305Z,14.56
2019-03-21T04:35:00.694Z,14.61
2019-03-21T04:36:07.314Z,14.56
2019-03-21T04:37:15.355Z,14.23
2019-03-21T04:38:23.375Z,13.74
2019-03-21T04:39:31.035Z,13.25
2019-03-21T04:40:37.175Z,12.82
2019-03-21T04:41:46.109Z,12.50
2019-03-21T04:42:54.135Z,12.51
2019-03-21T04:44:02.791Z,12.70
2019-03-21T04:45:22.685Z,12.92
2019-03-21T04:46:29.245Z,13.18
2019-03-21T04:47:35.281Z,13.34
2019-03-21T04:48:41.750Z,13.50
2019-03-21T04:49:48.495Z,13.62
2019-03-21T04:50:55.372Z,13.77
2019-03-21T04:52:03.404Z,13.86
2019-03-21T04:53:09.654Z,14.05
2019-03-21T04:54:42.297Z,14.15
2019-03-21T04:56:00.355Z,14.24
2019-03-21T04:57:20.138Z,14.33
2019-03-21T04:58:26.215Z,14.34
2019-03-21T05:02:09.916Z,14.31
2019-03-21T05:03:25.087Z,14.27
2019-03-21T05:05:00.236Z,14.34
2019-03-21T05:08:36.016Z,14.33
2019-03-21T05:10:06.746Z,14.40
2019-03-21T05:11:39.896Z,14.48
2019-03-21T05:12:46.482Z,14.51
2019-03-21T05:13:52.983Z,14.48
2019-03-21T05:14:59.407Z,14.15
2019-03-21T05:16:15.039Z,13.71
2019-03-21T05:17:19.264Z,13.19
2019-03-21T05:18:33.785Z,12.72
2019-03-21T05:19:40.295Z,12.37
2019-03-21T05:21:20.328Z,12.43
2019-03-21T05:22:42.243Z,12.77
2019-03-21T05:23:47.903Z,13.08
2019-03-21T05:24:59.577Z,13.36
2019-03-21T05:26:07.357Z,13.53
2019-03-21T05:27:15.117Z,13.71
2019-03-21T05:28:22.796Z,13.86
2019-03-21T05:29:36.619Z,14.03
2019-03-21T05:33:03.527Z,14.31
2019-03-21T05:34:18.357Z,14.48
2019-03-21T05:35:26.917Z,14.56
2019-03-21T05:36:33.087Z,14.65
2019-03-21T05:37:40.885Z,14.74
2019-03-21T05:38:47.376Z,14.67
2019-03-21T05:39:54.496Z,14.33
2019-03-21T05:41:01.205Z,13.92
2019-03-21T05:42:09.937Z,13.46
2019-03-21T05:43:39.074Z,12.99
2019-03-21T05:44:45.704Z,12.40
2019-03-21T05:45:53.346Z,12.12
2019-03-21T05:47:01.861Z,12.23
2019-03-21T05:48:08.296Z,12.47
2019-03-21T05:50:33.477Z,13.06
2019-03-21T05:51:40.857Z,13.34
2019-03-21T05:52:49.107Z,13.61
2019-03-21T05:53:57.248Z,13.85
2019-03-21T05:55:04.098Z,14.06
2019-03-21T05:56:11.996Z,14.23
2019-03-21T05:57:19.705Z,14.40
2019-03-21T05:58:25.837Z,14.53
2019-03-21T05:59:31.968Z,14.63
2019-03-21T06:00:45.326Z,14.68
2019-03-21T06:01:51.938Z,14.82
2019-03-21T06:02:58.647Z,14.72
2019-03-21T06:04:04.658Z,14.37
2019-03-21T06:05:10.736Z,13.92
2019-03-21T06:06:21.538Z,13.50
2019-03-21T06:07:32.349Z,13.09
2019-03-21T06:08:41.228Z,12.72
2019-03-21T06:09:47.805Z,12.59
2019-03-21T06:10:54.645Z,12.72
2019-03-21T06:12:03.986Z,13.05
2019-03-21T06:13:10.998Z,13.36
2019-03-21T06:14:19.798Z,13.58
2019-03-21T06:15:35.178Z,13.78
2019-03-21T06:16:43.624Z,13.95
2019-03-21T06:18:20.605Z,14.12
2019-03-21T06:19:50.667Z,14.37
2019-03-21T06:21:04.433Z,14.56
2019-03-21T06:22:28.588Z,14.72
2019-03-21T06:24:03.909Z,14.88
2019-03-21T06:25:45.386Z,15.03
2019-03-21T06:27:14.379Z,14.92
2019-03-21T06:28:23.228Z,14.41
2019-03-21T06:29:30.259Z,13.92
2019-03-21T06:30:38.767Z,13.53
2019-03-21T06:31:46.845Z,13.13
2019-03-21T06:32:53.366Z,12.85
2019-03-21T06:34:01.662Z,12.89
2019-03-21T06:35:13.114Z,13.11
2019-03-21T06:36:19.318Z,13.46
2019-03-21T06:37:28.467Z,13.75
2019-03-21T06:38:33.968Z,14.09
2019-03-21T06:39:40.753Z,14.31
2019-03-21T06:40:47.149Z,14.56
2019-03-21T06:41:53.818Z,14.74
2019-03-21T06:43:03.419Z,14.92
2019-03-21T06:44:10.749Z,15.13
2019-03-21T06:45:20.579Z,15.23
2019-03-21T06:46:28.879Z,15.10
2019-03-21T06:47:35.757Z,14.76
2019-03-21T06:48:42.519Z,14.43
2019-03-21T06:49:49.099Z,14.13
2019-03-21T06:50:56.051Z,13.81
2019-03-21T06:52:02.700Z,13.50
2019-03-21T06:53:09.520Z,13.21
2019-03-21T06:54:16.693Z,13.12
2019-03-21T06:55:23.272Z,13.46
2019-03-21T06:56:29.528Z,13.92
2019-03-21T06:57:36.295Z,14.36
2019-03-21T06:58:43.931Z,14.76
2019-03-21T06:59:49.758Z,15.05
2019-03-21T07:00:55.771Z,15.19
2019-03-21T07:02:01.841Z,15.02
2019-03-21T07:03:10.730Z,14.68
2019-03-21T07:04:18.657Z,14.31
2019-03-21T07:05:26.837Z,13.91
2019-03-21T07:06:33.269Z,13.55
2019-03-21T07:07:39.458Z,13.23
2019-03-21T07:08:47.090Z,12.94
2019-03-21T07:09:53.630Z,12.81
2019-03-21T07:11:00.408Z,12.95
2019-03-21T07:12:06.991Z,13.30
2019-03-21T07:13:15.125Z,13.67
2019-03-21T07:14:21.911Z,14.08
2019-03-21T07:15:28.149Z,14.36
2019-03-21T07:16:36.111Z,14.65
2019-03-21T07:17:44.428Z,14.75
2019-03-21T07:18:50.941Z,14.58
2019-03-21T07:19:58.381Z,14.30
2019-03-21T07:21:05.501Z,13.98
2019-03-21T07:22:13.982Z,13.68
2019-03-21T07:23:21.023Z,13.36
2019-03-21T07:24:27.451Z,13.12
2019-03-21T07:25:36.671Z,12.89
2019-03-21T07:26:43.422Z,12.79
2019-03-21T07:27:51.520Z,13.05
2019-03-21T07:28:57.605Z,13.43
2019-03-21T07:30:05.104Z,13.82
2019-03-21T07:31:11.437Z,14.15
2019-03-21T07:32:17.589Z,14.51
2019-03-21T07:33:23.801Z,14.79
2019-03-21T07:34:29.842Z,14.98
2019-03-21T07:35:37.541Z,14.84
2019-03-21T07:36:43.650Z,14.54
2019-03-21T07:37:49.564Z,14.17
2019-03-21T07:38:57.232Z,13.86
2019-03-21T07:40:03.199Z,13.60
2019-03-21T07:41:10.553Z,13.32
2019-03-21T07:42:17.871Z,13.08
2019-03-21T07:43:25.711Z,12.84
2019-03-21T07:44:32.802Z,12.59
2019-03-21T07:45:40.103Z,12.46
2019-03-21T07:46:47.355Z,12.66
2019-03-21T07:47:54.103Z,12.99
2019-03-21T07:49:00.919Z,13.37
2019-03-21T07:50:12.553Z,13.75
2019-03-21T07:51:19.061Z,14.22
2019-03-21T07:52:26.203Z,14.45
2019-03-21T07:53:33.432Z,14.36
2019-03-21T07:54:40.589Z,14.13
2019-03-21T07:55:47.724Z,13.88
2019-03-21T07:56:54.423Z,13.65
2019-03-21T07:58:02.303Z,13.41
2019-03-21T07:59:08.823Z,13.25
2019-03-21T08:00:19.926Z,13.05
2019-03-21T08:01:26.080Z,12.82
2019-03-21T08:02:34.074Z,12.67
2019-03-21T08:03:40.114Z,12.59
2019-03-21T08:04:46.255Z,12.51
2019-03-21T08:05:52.203Z,12.42
2019-03-21T08:06:58.123Z,12.43
2019-03-21T08:08:03.960Z,12.71
2019-03-21T08:09:10.113Z,13.12
2019-03-21T08:10:16.128Z,13.61
2019-03-21T08:11:23.784Z,14.15
2019-03-21T08:12:30.723Z,14.54
2019-03-21T08:13:37.974Z,14.51
2019-03-21T08:14:45.234Z,14.26
2019-03-21T08:15:51.955Z,13.89
2019-03-21T08:16:59.645Z,13.57
2019-03-21T08:18:05.983Z,13.27
2019-03-21T08:19:13.904Z,13.02
2019-03-21T08:20:21.063Z,12.82
2019-03-21T08:21:29.346Z,12.60
2019-03-21T08:22:36.304Z,12.42
2019-03-21T08:23:44.072Z,12.22
2019-03-21T08:24:52.454Z,12.06
2019-03-21T08:26:00.233Z,11.97
2019-03-21T08:27:07.083Z,12.06
2019-03-21T08:28:13.102Z,12.50
2019-03-21T08:29:19.923Z,13.13
2019-03-21T08:30:33.342Z,13.78
2019-03-21T08:31:39.457Z,14.41
2019-03-21T08:32:46.369Z,14.74
2019-03-21T08:33:52.246Z,14.72
2019-03-21T08:34:58.143Z,14.57
2019-03-21T08:36:04.404Z,14.37
2019-03-21T08:37:10.346Z,14.11
2019-03-21T08:38:16.312Z,13.85
2019-03-21T08:39:22.344Z,13.60
2019-03-21T08:40:28.411Z,13.36
2019-03-21T08:41:35.024Z,13.13
2019-03-21T08:42:41.031Z,12.81
2019-03-21T08:43:48.938Z,12.57
2019-03-21T08:44:55.865Z,12.39
2019-03-21T08:46:04.429Z,12.18
2019-03-21T08:47:11.016Z,12.01
2019-03-21T08:48:17.082Z,11.87
2019-03-21T08:49:23.245Z,11.87
2019-03-21T08:50:31.025Z,12.25
2019-03-21T08:51:37.464Z,12.82
2019-03-21T08:52:43.663Z,13.41
2019-03-21T08:53:49.722Z,13.92
2019-03-21T08:54:55.656Z,14.26
2019-03-21T08:56:02.065Z,14.30
2019-03-21T08:57:08.415Z,14.15
2019-03-21T08:58:14.393Z,13.92
2019-03-21T08:59:22.020Z,13.70
2019-03-21T09:00:34.009Z,13.44
2019-03-21T09:01:35.625Z,13.26
2019-03-21T09:02:41.639Z,13.13
2019-03-21T09:03:47.816Z,13.02
2019-03-21T09:04:53.795Z,12.89
2019-03-21T09:05:59.691Z,12.84
2019-03-21T09:07:05.582Z,12.84
2019-03-21T09:08:11.642Z,12.89
2019-03-21T09:09:17.517Z,12.94
2019-03-21T09:10:23.473Z,12.98
2019-03-21T09:11:29.373Z,12.96
2019-03-21T09:12:35.329Z,12.92
2019-03-21T09:13:41.262Z,12.84
2019-03-21T09:14:47.747Z,12.75
2019-03-21T09:15:53.694Z,12.63
2019-03-21T09:17:00.180Z,12.54
2019-03-21T09:18:06.600Z,12.56
2019-03-21T09:19:12.777Z,12.92
2019-03-21T09:20:19.426Z,13.47
2019-03-21T09:21:26.804Z,14.01
2019-03-21T09:22:33.374Z,14.56
2019-03-21T09:23:40.566Z,14.92
2019-03-21T09:24:47.275Z,14.99
2019-03-21T09:25:56.407Z,14.82
2019-03-21T09:27:04.993Z,14.60
2019-03-21T09:28:14.352Z,14.33
2019-03-21T09:29:20.685Z,14.09
2019-03-21T09:30:27.096Z,13.88
2019-03-21T09:31:33.195Z,13.65
2019-03-21T09:32:39.032Z,13.50
2019-03-21T09:33:44.965Z,13.39
2019-03-21T09:34:50.784Z,13.32
2019-03-21T09:35:56.668Z,13.30
2019-03-21T09:37:04.067Z,13.27
2019-03-21T09:38:10.145Z,13.19
2019-03-21T09:39:16.086Z,13.11
2019-03-21T09:40:22.266Z,13.01
2019-03-21T09:41:29.116Z,12.91
2019-03-21T09:42:35.467Z,12.87
2019-03-21T09:43:41.995Z,12.81
2019-03-21T09:44:49.793Z,12.78
2019-03-21T09:45:56.706Z,12.74
2019-03-21T09:47:02.715Z,12.68
2019-03-21T09:48:09.438Z,12.61
2019-03-21T09:49:15.581Z,12.75
2019-03-21T09:50:31.147Z,13.29
2019-03-21T09:51:38.457Z,13.99
2019-03-21T09:52:44.362Z,14.70
2019-03-21T09:53:52.346Z,15.27
2019-03-21T09:54:58.189Z,15.65
2019-03-21T09:56:04.028Z,15.66
2019-03-21T09:57:10.467Z,15.53
2019-03-21T09:58:18.598Z,15.30
2019-03-21T09:59:24.498Z,15.12
2019-03-21T10:00:37.313Z,14.98
2019-03-21T10:01:43.132Z,14.85
2019-03-21T10:02:49.237Z,14.72
2019-03-21T10:03:55.267Z,14.64
2019-03-21T10:05:02.747Z,14.53
2019-03-21T10:06:08.630Z,14.45
2019-03-21T10:07:16.177Z,14.41
2019-03-21T10:08:22.527Z,14.36
2019-03-21T10:09:28.537Z,14.31
2019-03-21T10:10:35.779Z,14.29
2019-03-21T10:11:41.704Z,14.24
2019-03-21T10:12:47.728Z,14.19
2019-03-21T10:13:54.354Z,14.17
2019-03-21T10:15:01.083Z,14.12
2019-03-21T10:16:07.164Z,14.03
2019-03-21T10:17:14.528Z,13.92
2019-03-21T10:18:21.161Z,13.88
2019-03-21T10:19:29.350Z,13.85
2019-03-21T10:20:37.468Z,13.80
2019-03-21T10:21:45.699Z,13.71
2019-03-21T10:22:52.355Z,13.67
2019-03-21T10:23:58.439Z,13.58
2019-03-21T10:25:07.044Z,13.54
2019-03-21T10:27:36.598Z,13.53
2019-03-21T10:28:42.556Z,13.53
2019-03-21T10:29:48.328Z,13.51
2019-03-21T10:30:54.261Z,13.49
2019-03-21T10:32:00.393Z,13.46
2019-03-21T10:33:08.135Z,13.43
2019-03-21T10:34:14.142Z,13.41
2019-03-21T10:35:21.895Z,13.37
2019-03-21T10:36:27.773Z,13.37
2019-03-21T10:37:35.234Z,13.34
2019-03-21T10:38:41.051Z,13.36
2019-03-21T10:39:46.955Z,13.34
2019-03-21T10:40:53.667Z,13.36
2019-03-21T10:42:00.759Z,13.37
2019-03-21T10:43:07.262Z,13.40
2019-03-21T10:44:13.550Z,13.46
2019-03-21T10:45:19.584Z,13.43
2019-03-21T10:46:26.939Z,13.50
2019-03-21T10:47:33.399Z,13.53
2019-03-21T10:48:39.698Z,13.55
2019-03-21T10:49:46.367Z,13.57
2019-03-21T10:50:53.349Z,13.58
2019-03-21T10:52:00.079Z,13.65
2019-03-21T10:53:07.730Z,13.70
2019-03-21T10:54:13.930Z,13.71
2019-03-21T10:55:19.765Z,13.74
2019-03-21T10:56:26.879Z,13.78
2019-03-21T10:57:34.476Z,13.82
2019-03-21T10:58:40.939Z,13.82
2019-03-21T10:59:46.885Z,13.81
2019-03-21T11:00:55.949Z,13.82
2019-03-21T11:02:07.141Z,13.84
2019-03-21T11:03:11.014Z,13.85
2019-03-21T11:04:16.869Z,13.89
2019-03-21T11:05:23.292Z,13.94
2019-03-21T11:06:29.364Z,13.96
2019-03-21T11:07:35.483Z,14.01
2019-03-21T11:08:41.564Z,14.05
2019-03-21T11:09:47.557Z,14.06
2019-03-21T11:10:53.393Z,14.11
2019-03-21T11:12:00.440Z,14.11
2019-03-21T11:13:07.382Z,14.13
2019-03-21T11:14:13.523Z,14.11
2019-03-21T11:15:19.397Z,14.06
2019-03-21T11:16:25.225Z,14.03
2019-03-21T11:17:31.178Z,14.08
2019-03-21T11:18:37.020Z,14.08
2019-03-21T11:19:43.071Z,14.09
2019-03-21T11:20:48.944Z,14.08
2019-03-21T11:22:05.773Z,14.05
2019-03-21T11:23:03.456Z,14.01
2019-03-21T11:24:09.400Z,13.99
2019-03-21T11:25:15.225Z,13.98
2019-03-21T11:26:21.118Z,13.98
2019-03-21T11:27:26.949Z,14.03
2019-03-21T11:28:32.738Z,14.08
2019-03-21T11:29:38.587Z,14.12
2019-03-21T11:30:44.991Z,14.16
2019-03-21T11:31:50.869Z,14.17
2019-03-21T11:32:56.677Z,14.20
2019-03-21T11:34:02.624Z,14.26
2019-03-21T11:35:08.468Z,14.30
2019-03-21T11:36:15.348Z,14.36
2019-03-21T11:37:21.207Z,14.47
2019-03-21T11:38:27.204Z,14.56
2019-03-21T11:39:36.070Z,14.63
2019-03-21T11:40:42.541Z,14.74
2019-03-21T11:41:49.291Z,14.85
2019-03-21T11:42:55.742Z,14.96
2019-03-21T11:44:02.671Z,15.09
2019-03-21T11:45:09.929Z,15.16
2019-03-21T11:46:16.239Z,15.20
2019-03-21T11:47:24.103Z,15.27
2019-03-21T11:48:32.834Z,15.31
2019-03-21T11:49:39.050Z,15.38
2019-03-21T11:50:44.967Z,15.43
2019-03-21T11:52:18.086Z,15.47
2019-03-21T11:53:21.192Z,15.47
2019-03-21T11:54:27.099Z,15.46
2019-03-21T11:55:33.772Z,15.48
2019-03-21T11:56:40.772Z,15.51
2019-03-21T11:57:47.184Z,15.50
2019-03-21T11:58:53.045Z,15.50
2019-03-21T11:59:58.869Z,15.48
2019-03-21T12:01:06.392Z,15.47
2019-03-21T12:02:12.224Z,15.47
2019-03-21T12:03:18.100Z,15.46
2019-03-21T12:04:23.911Z,15.46
2019-03-21T12:05:29.870Z,15.48
2019-03-21T12:06:35.996Z,15.51
2019-03-21T12:07:41.897Z,15.55
2019-03-21T12:08:48.119Z,15.55
2019-03-21T12:09:54.143Z,15.54
2019-03-21T12:11:00.016Z,15.57
2019-03-21T12:12:05.834Z,15.60
2019-03-21T12:13:13.636Z,15.60
2019-03-21T12:14:19.447Z,15.55
2019-03-21T12:15:25.420Z,15.50
2019-03-21T12:16:31.305Z,15.46
2019-03-21T12:17:37.944Z,15.41
2019-03-21T12:18:43.972Z,15.33
2019-03-21T12:19:50.885Z,15.29
2019-03-21T12:20:57.713Z,15.21
2019-03-21T12:22:04.969Z,15.20
2019-03-21T12:23:11.914Z,15.14
2019-03-21T12:24:18.512Z,15.12
2019-03-21T12:25:25.153Z,15.13
2019-03-21T12:26:31.311Z,15.10
2019-03-21T12:27:38.794Z,15.14
2019-03-21T12:28:45.926Z,15.17
2019-03-21T12:29:51.863Z,15.21
2019-03-21T12:30:57.889Z,15.27
2019-03-21T12:32:03.839Z,15.33
2019-03-21T12:33:09.718Z,15.38
2019-03-21T12:34:15.618Z,15.41
2019-03-21T12:35:21.493Z,15.40
2019-03-21T12:36:27.379Z,15.41
2019-03-21T12:37:33.170Z,15.46
2019-03-21T12:38:39.100Z,15.47
2019-03-21T12:39:44.923Z,15.46
2019-03-21T12:40:50.875Z,15.50
2019-03-21T12:41:57.739Z,15.55
2019-03-21T12:43:03.588Z,15.60
2019-03-21T12:44:09.433Z,15.65
2019-03-21T12:45:15.322Z,15.69
2019-03-21T12:46:21.159Z,15.76
2019-03-21T12:47:31.402Z,15.78
2019-03-21T12:48:34.683Z,15.82
2019-03-21T12:49:40.578Z,15.83
2019-03-21T12:50:47.889Z,15.89
2019-03-21T12:51:54.241Z,15.90
2019-03-21T12:53:00.882Z,15.92
2019-03-21T12:54:07.412Z,15.92
2019-03-21T12:55:14.004Z,15.92
2019-03-21T12:56:20.659Z,15.88
2019-03-21T12:57:26.718Z,15.76
2019-03-21T12:58:33.282Z,15.74
2019-03-21T12:59:39.336Z,15.72
2019-03-21T13:00:45.114Z,15.66
2019-03-21T13:01:51.071Z,15.68
2019-03-21T13:02:57.112Z,15.66
2019-03-21T13:04:03.000Z,15.65
2019-03-21T13:05:10.045Z,15.61
2019-03-21T13:06:15.892Z,15.57
2019-03-21T13:07:22.058Z,15.51
2019-03-21T13:08:33.743Z,15.50
2019-03-21T13:09:35.884Z,15.50
2019-03-21T13:10:41.723Z,15.51
2019-03-21T13:11:48.243Z,15.48
2019-03-21T13:12:54.564Z,15.47
2019-03-21T13:14:00.600Z,15.46
2019-03-21T13:15:07.874Z,15.44
2019-03-21T13:16:14.381Z,15.40
2019-03-21T13:17:21.754Z,15.37
2019-03-21T13:18:27.733Z,15.33
2019-03-21T13:19:34.692Z,15.33
2019-03-21T13:20:41.685Z,15.36
2019-03-21T13:21:48.160Z,15.34
2019-03-21T13:22:54.496Z,15.33
2019-03-21T13:24:01.622Z,15.37
2019-03-21T13:25:08.031Z,15.38
2019-03-21T13:26:13.785Z,15.37
2019-03-21T13:27:20.200Z,15.37
2019-03-21T13:28:26.426Z,15.33
2019-03-21T13:29:32.254Z,15.33
2019-03-21T13:30:38.114Z,15.27
2019-03-21T13:31:44.117Z,15.26
2019-03-21T13:32:50.051Z,15.23
2019-03-21T13:33:56.035Z,15.21
2019-03-21T13:35:02.042Z,15.20
2019-03-21T13:36:08.081Z,15.20
2019-03-21T13:37:14.126Z,15.19
2019-03-21T13:38:20.049Z,15.19
2019-03-21T13:39:25.913Z,15.17
2019-03-21T13:40:31.763Z,15.16
2019-03-21T13:41:37.999Z,15.14
2019-03-21T13:42:46.275Z,15.12
2019-03-21T13:43:52.215Z,15.10
2019-03-21T13:44:58.665Z,15.09
2019-03-21T13:46:05.056Z,15.05
2019-03-21T13:47:11.504Z,15.05
2019-03-21T13:48:17.482Z,15.03
2019-03-21T13:49:25.726Z,15.03
2019-03-21T13:50:31.806Z,14.98
2019-03-21T13:51:37.705Z,14.93
2019-03-21T13:52:43.552Z,14.89
2019-03-21T13:53:49.837Z,14.85
2019-03-21T13:54:56.635Z,14.76
2019-03-21T13:56:03.565Z,14.72
2019-03-21T13:57:12.587Z,14.68
2019-03-21T13:58:18.931Z,14.65
2019-03-21T13:59:24.846Z,14.64
2019-03-21T14:00:30.636Z,14.60
2019-03-21T14:01:36.570Z,14.57
2019-03-21T14:02:42.384Z,14.57
2019-03-21T14:03:48.321Z,14.54
2019-03-21T14:05:15.056Z,14.50
2019-03-21T14:06:22.642Z,14.41
2019-03-21T14:07:28.536Z,14.41
2019-03-21T14:08:34.774Z,14.41
2019-03-21T14:09:40.835Z,14.37
2019-03-21T14:10:47.083Z,14.36
2019-03-21T14:11:52.904Z,14.31
2019-03-21T14:13:00.251Z,14.31
2019-03-21T14:14:07.883Z,14.29
2019-03-21T14:15:17.890Z,14.26
2019-03-21T14:16:24.237Z,14.22
2019-03-21T14:17:30.656Z,14.20
2019-03-21T14:18:36.964Z,14.16
2019-03-21T14:19:43.798Z,14.13
2019-03-21T14:20:49.933Z,14.17
2019-03-21T14:22:00.506Z,14.13
2019-03-21T14:23:17.598Z,14.12
2019-03-21T14:24:27.774Z,14.13
2019-03-21T14:25:39.067Z,14.15
2019-03-21T14:27:10.024Z,14.13
2019-03-21T14:28:38.328Z,14.16
2019-03-21T14:30:00.878Z,14.16
2019-03-21T14:31:02.692Z,14.13
2019-03-21T14:32:08.731Z,14.08
2019-03-21T14:33:25.133Z,14.08
2019-03-21T14:34:38.499Z,14.05
2019-03-21T14:35:44.376Z,14.05
2019-03-21T14:36:50.417Z,14.06
2019-03-21T14:37:56.477Z,14.05
2019-03-21T14:39:05.727Z,14.06
2019-03-21T14:40:14.317Z,14.03
2019-03-21T14:41:20.384Z,14.06
2019-03-21T14:42:26.361Z,14.05
2019-03-21T14:43:33.394Z,14.05
2019-03-21T14:45:00.618Z,14.06
2019-03-21T14:46:07.047Z,14.08
2019-03-21T14:47:14.385Z,14.09
2019-03-21T14:48:20.877Z,14.08